sensor_id;sensor_type;location;lat;lon;timestamp;P1;durP1;ratioP1;P2;durP2;ratioP2
62071;SDS011;48031;48.542;13.232;2023-01-10T00:03:27;2.53;;;1.60;;
62071;SDS011;48031;48.542;13.232;2023-01-10T00:07:29;2.50;;;1.70;;
62071;SDS011;48031;48.542;13.232;2023-01-10T00:11:31;2.72;;;1.73;;
62071;SDS011;48031;48.542;13.232;2023-01-10T00:15:52;3.30;;;1.80;;
62071;SDS011;48031;48.542;13.232;2023-01-10T00:19:56;2.40;;;2.00;;
62071;SDS011;48031;48.542;13.232;2023-01-10T00:23:57;3.08;;;1.83;;
62071;SDS011;48031;48.542;13.232;2023-01-10T00:32:20;2.35;;;1.90;;
62071;SDS011;48031;48.542;13.232;2023-01-10T00:36:22;2.58;;;1.85;;
62071;SDS011;48031;48.542;13.232;2023-01-10T00:40:24;3.67;;;1.73;;
62071;SDS011;48031;48.542;13.232;2023-01-10T00:44:26;3.55;;;2.00;;
62071;SDS011;48031;48.542;13.232;2023-01-10T00:48:28;2.13;;;1.92;;
62071;SDS011;48031;48.542;13.232;2023-01-10T00:52:30;2.33;;;1.85;;
62071;SDS011;48031;48.542;13.232;2023-01-10T00:56:32;3.20;;;1.95;;
62071;SDS011;48031;48.542;13.232;2023-01-10T01:00:33;2.55;;;2.10;;
62071;SDS011;48031;48.542;13.232;2023-01-10T01:04:35;2.90;;;2.20;;
62071;SDS011;48031;48.542;13.232;2023-01-10T01:08:37;4.18;;;1.95;;
62071;SDS011;48031;48.542;13.232;2023-01-10T01:12:39;2.13;;;1.90;;
62071;SDS011;48031;48.542;13.232;2023-01-10T01:16:40;2.60;;;1.98;;
62071;SDS011;48031;48.542;13.232;2023-01-10T01:20:43;3.33;;;2.13;;
62071;SDS011;48031;48.542;13.232;2023-01-10T01:24:46;3.13;;;2.10;;
62071;SDS011;48031;48.542;13.232;2023-01-10T01:28:48;2.20;;;1.90;;
62071;SDS011;48031;48.542;13.232;2023-01-10T01:32:50;3.05;;;2.00;;
62071;SDS011;48031;48.542;13.232;2023-01-10T01:36:52;3.38;;;2.40;;
62071;SDS011;48031;48.542;13.232;2023-01-10T01:40:53;2.63;;;2.00;;
62071;SDS011;48031;48.542;13.232;2023-01-10T01:45:18;2.08;;;1.80;;
62071;SDS011;48031;48.542;13.232;2023-01-10T01:49:33;2.60;;;2.05;;
62071;SDS011;48031;48.542;13.232;2023-01-10T01:57:48;2.92;;;2.00;;
62071;SDS011;48031;48.542;13.232;2023-01-10T02:01:54;1.95;;;1.77;;
62071;SDS011;48031;48.542;13.232;2023-01-10T02:06:01;3.63;;;2.10;;
62071;SDS011;48031;48.542;13.232;2023-01-10T02:14:26;2.28;;;1.80;;
62071;SDS011;48031;48.542;13.232;2023-01-10T02:18:29;3.53;;;2.00;;
62071;SDS011;48031;48.542;13.232;2023-01-10T02:22:56;3.45;;;2.20;;
62071;SDS011;48031;48.542;13.232;2023-01-10T02:40:31;2.67;;;2.15;;
62071;SDS011;48031;48.542;13.232;2023-01-10T02:44:59;3.78;;;2.35;;
62071;SDS011;48031;48.542;13.232;2023-01-10T02:49:07;2.88;;;2.03;;
62071;SDS011;48031;48.542;13.232;2023-01-10T02:53:10;5.82;;;2.03;;
62071;SDS011;48031;48.542;13.232;2023-01-10T02:57:29;4.60;;;2.55;;
62071;SDS011;48031;48.542;13.232;2023-01-10T03:10:53;3.10;;;2.30;;
62071;SDS011;48031;48.542;13.232;2023-01-10T03:14:57;2.28;;;2.00;;
62071;SDS011;48031;48.542;13.232;2023-01-10T03:19:07;1.80;;;1.70;;
62071;SDS011;48031;48.542;13.232;2023-01-10T03:23:13;2.30;;;2.05;;
62071;SDS011;48031;48.542;13.232;2023-01-10T03:31:31;2.30;;;2.08;;
62071;SDS011;48031;48.542;13.232;2023-01-10T03:48:40;3.50;;;2.50;;
62071;SDS011;48031;48.542;13.232;2023-01-10T03:52:46;3.75;;;2.40;;
62071;SDS011;48031;48.542;13.232;2023-01-10T03:56:48;3.03;;;2.40;;
62071;SDS011;48031;48.542;13.232;2023-01-10T04:00:51;3.28;;;2.60;;
62071;SDS011;48031;48.542;13.232;2023-01-10T04:04:53;3.58;;;2.00;;
62071;SDS011;48031;48.542;13.232;2023-01-10T04:08:55;2.40;;;2.20;;
62071;SDS011;48031;48.542;13.232;2023-01-10T04:13:00;3.00;;;1.90;;
62071;SDS011;48031;48.542;13.232;2023-01-10T04:17:03;3.75;;;2.30;;
62071;SDS011;48031;48.542;13.232;2023-01-10T04:21:05;2.63;;;2.15;;
62071;SDS011;48031;48.542;13.232;2023-01-10T04:25:07;2.30;;;2.03;;
62071;SDS011;48031;48.542;13.232;2023-01-10T04:29:09;2.85;;;2.10;;
62071;SDS011;48031;48.542;13.232;2023-01-10T04:33:11;2.83;;;2.00;;
62071;SDS011;48031;48.542;13.232;2023-01-10T04:37:13;1.75;;;1.65;;
62071;SDS011;48031;48.542;13.232;2023-01-10T04:41:15;2.95;;;2.10;;
62071;SDS011;48031;48.542;13.232;2023-01-10T04:45:17;2.83;;;2.00;;
62071;SDS011;48031;48.542;13.232;2023-01-10T04:49:20;3.30;;;2.10;;
62071;SDS011;48031;48.542;13.232;2023-01-10T04:53:22;3.15;;;2.30;;
62071;SDS011;48031;48.542;13.232;2023-01-10T04:57:24;3.38;;;2.40;;
62071;SDS011;48031;48.542;13.232;2023-01-10T05:01:25;3.85;;;2.28;;
62071;SDS011;48031;48.542;13.232;2023-01-10T05:05:27;2.30;;;2.10;;
62071;SDS011;48031;48.542;13.232;2023-01-10T05:09:31;3.58;;;2.17;;
62071;SDS011;48031;48.542;13.232;2023-01-10T05:13:32;2.80;;;2.33;;
62071;SDS011;48031;48.542;13.232;2023-01-10T05:17:34;4.05;;;2.20;;
62071;SDS011;48031;48.542;13.232;2023-01-10T05:21:36;3.55;;;2.38;;
62071;SDS011;48031;48.542;13.232;2023-01-10T05:25:37;3.88;;;2.90;;
62071;SDS011;48031;48.542;13.232;2023-01-10T05:29:39;3.72;;;2.88;;
62071;SDS011;48031;48.542;13.232;2023-01-10T05:33:45;3.25;;;2.63;;
62071;SDS011;48031;48.542;13.232;2023-01-10T05:37:50;3.97;;;2.97;;
62071;SDS011;48031;48.542;13.232;2023-01-10T05:41:53;3.58;;;2.90;;
62071;SDS011;48031;48.542;13.232;2023-01-10T05:45:54;4.72;;;3.20;;
62071;SDS011;48031;48.542;13.232;2023-01-10T05:49:56;5.60;;;3.13;;
62071;SDS011;48031;48.542;13.232;2023-01-10T05:53:58;3.42;;;2.80;;
62071;SDS011;48031;48.542;13.232;2023-01-10T05:58:00;3.90;;;2.70;;
62071;SDS011;48031;48.542;13.232;2023-01-10T06:02:01;5.55;;;3.40;;
62071;SDS011;48031;48.542;13.232;2023-01-10T06:06:03;5.75;;;3.38;;
62071;SDS011;48031;48.542;13.232;2023-01-10T06:10:05;5.32;;;3.45;;
62071;SDS011;48031;48.542;13.232;2023-01-10T06:14:07;6.18;;;3.60;;
62071;SDS011;48031;48.542;13.232;2023-01-10T06:18:09;5.00;;;3.53;;
62071;SDS011;48031;48.542;13.232;2023-01-10T06:22:12;7.35;;;4.10;;
62071;SDS011;48031;48.542;13.232;2023-01-10T06:26:14;4.28;;;3.17;;
62071;SDS011;48031;48.542;13.232;2023-01-10T06:30:16;4.35;;;3.00;;
62071;SDS011;48031;48.542;13.232;2023-01-10T06:34:18;4.82;;;3.20;;
62071;SDS011;48031;48.542;13.232;2023-01-10T06:38:19;4.82;;;3.45;;
62071;SDS011;48031;48.542;13.232;2023-01-10T06:42:21;5.30;;;3.47;;
62071;SDS011;48031;48.542;13.232;2023-01-10T06:46:23;6.05;;;2.92;;
62071;SDS011;48031;48.542;13.232;2023-01-10T06:50:25;5.68;;;3.13;;
62071;SDS011;48031;48.542;13.232;2023-01-10T06:54:27;5.07;;;3.38;;
62071;SDS011;48031;48.542;13.232;2023-01-10T06:58:28;4.88;;;3.00;;
62071;SDS011;48031;48.542;13.232;2023-01-10T07:02:30;5.25;;;3.47;;
62071;SDS011;48031;48.542;13.232;2023-01-10T07:06:35;5.32;;;3.33;;
62071;SDS011;48031;48.542;13.232;2023-01-10T07:10:41;4.20;;;3.28;;
62071;SDS011;48031;48.542;13.232;2023-01-10T07:14:43;6.00;;;4.15;;
62071;SDS011;48031;48.542;13.232;2023-01-10T07:18:45;4.35;;;3.42;;
62071;SDS011;48031;48.542;13.232;2023-01-10T07:22:57;5.75;;;3.75;;
62071;SDS011;48031;48.542;13.232;2023-01-10T07:27:00;6.70;;;3.72;;
62071;SDS011;48031;48.542;13.232;2023-01-10T07:31:02;5.55;;;4.03;;
62071;SDS011;48031;48.542;13.232;2023-01-10T07:35:06;5.00;;;3.58;;
62071;SDS011;48031;48.542;13.232;2023-01-10T07:39:08;5.68;;;3.83;;
62071;SDS011;48031;48.542;13.232;2023-01-10T07:43:10;9.38;;;4.60;;
62071;SDS011;48031;48.542;13.232;2023-01-10T07:47:11;7.40;;;4.28;;
62071;SDS011;48031;48.542;13.232;2023-01-10T07:51:13;7.25;;;4.00;;
62071;SDS011;48031;48.542;13.232;2023-01-10T07:55:15;6.75;;;4.50;;
62071;SDS011;48031;48.542;13.232;2023-01-10T07:59:18;5.47;;;3.33;;
62071;SDS011;48031;48.542;13.232;2023-01-10T08:03:38;6.18;;;3.70;;
62071;SDS011;48031;48.542;13.232;2023-01-10T08:07:39;4.25;;;3.33;;
62071;SDS011;48031;48.542;13.232;2023-01-10T08:11:41;5.57;;;3.97;;
62071;SDS011;48031;48.542;13.232;2023-01-10T08:15:43;5.82;;;3.55;;
62071;SDS011;48031;48.542;13.232;2023-01-10T08:19:47;5.97;;;3.60;;
62071;SDS011;48031;48.542;13.232;2023-01-10T08:23:49;7.45;;;3.00;;
62071;SDS011;48031;48.542;13.232;2023-01-10T08:27:52;6.65;;;3.78;;
62071;SDS011;48031;48.542;13.232;2023-01-10T08:31:53;3.97;;;3.20;;
62071;SDS011;48031;48.542;13.232;2023-01-10T08:35:56;4.22;;;3.30;;
62071;SDS011;48031;48.542;13.232;2023-01-10T08:39:57;4.38;;;3.53;;
62071;SDS011;48031;48.542;13.232;2023-01-10T08:43:59;3.80;;;3.05;;
62071;SDS011;48031;48.542;13.232;2023-01-10T08:48:01;3.30;;;2.90;;
62071;SDS011;48031;48.542;13.232;2023-01-10T08:52:03;5.20;;;3.75;;
62071;SDS011;48031;48.542;13.232;2023-01-10T08:56:06;3.70;;;3.05;;
62071;SDS011;48031;48.542;13.232;2023-01-10T09:00:09;3.45;;;2.78;;
62071;SDS011;48031;48.542;13.232;2023-01-10T09:04:12;3.88;;;2.35;;
62071;SDS011;48031;48.542;13.232;2023-01-10T09:08:14;3.38;;;2.90;;
62071;SDS011;48031;48.542;13.232;2023-01-10T09:12:16;4.03;;;2.83;;
62071;SDS011;48031;48.542;13.232;2023-01-10T09:16:36;3.53;;;2.95;;
62071;SDS011;48031;48.542;13.232;2023-01-10T09:20:39;4.80;;;3.03;;
62071;SDS011;48031;48.542;13.232;2023-01-10T09:24:42;4.53;;;3.33;;
62071;SDS011;48031;48.542;13.232;2023-01-10T09:28:44;4.15;;;3.15;;
62071;SDS011;48031;48.542;13.232;2023-01-10T09:32:50;3.47;;;2.78;;
62071;SDS011;48031;48.542;13.232;2023-01-10T09:36:52;6.27;;;3.60;;
62071;SDS011;48031;48.542;13.232;2023-01-10T09:49:32;5.25;;;3.35;;
62071;SDS011;48031;48.542;13.232;2023-01-10T09:53:48;3.53;;;2.83;;
62071;SDS011;48031;48.542;13.232;2023-01-10T09:58:03;4.88;;;3.22;;
62071;SDS011;48031;48.542;13.232;2023-01-10T10:02:21;5.53;;;3.80;;
62071;SDS011;48031;48.542;13.232;2023-01-10T10:15:39;4.85;;;3.70;;
62071;SDS011;48031;48.542;13.232;2023-01-10T10:33:19;6.72;;;4.30;;
62071;SDS011;48031;48.542;13.232;2023-01-10T10:37:26;7.13;;;4.03;;
62071;SDS011;48031;48.542;13.232;2023-01-10T10:41:38;6.28;;;4.13;;
62071;SDS011;48031;48.542;13.232;2023-01-10T10:45:44;5.97;;;4.22;;
62071;SDS011;48031;48.542;13.232;2023-01-10T10:54:16;8.48;;;3.53;;
62071;SDS011;48031;48.542;13.232;2023-01-10T10:58:18;6.90;;;3.92;;
62071;SDS011;48031;48.542;13.232;2023-01-10T11:02:25;5.13;;;3.80;;
62071;SDS011;48031;48.542;13.232;2023-01-10T11:06:29;5.43;;;3.42;;
62071;SDS011;48031;48.542;13.232;2023-01-10T11:10:34;7.03;;;4.00;;
62071;SDS011;48031;48.542;13.232;2023-01-10T11:14:44;6.03;;;3.88;;
62071;SDS011;48031;48.542;13.232;2023-01-10T11:18:51;5.63;;;3.53;;
62071;SDS011;48031;48.542;13.232;2023-01-10T11:23:10;5.05;;;3.90;;
62071;SDS011;48031;48.542;13.232;2023-01-10T11:27:13;4.47;;;3.67;;
62071;SDS011;48031;48.542;13.232;2023-01-10T11:31:26;4.82;;;3.10;;
62071;SDS011;48031;48.542;13.232;2023-01-10T11:35:31;4.63;;;3.67;;
62071;SDS011;48031;48.542;13.232;2023-01-10T11:39:35;3.70;;;2.43;;
62071;SDS011;48031;48.542;13.232;2023-01-10T11:43:38;5.70;;;2.55;;
62071;SDS011;48031;48.542;13.232;2023-01-10T11:47:41;2.55;;;2.25;;
62071;SDS011;48031;48.542;13.232;2023-01-10T11:51:50;2.65;;;2.05;;
62071;SDS011;48031;48.542;13.232;2023-01-10T11:55:57;2.47;;;1.85;;
62071;SDS011;48031;48.542;13.232;2023-01-10T11:59:59;2.88;;;2.08;;
62071;SDS011;48031;48.542;13.232;2023-01-10T12:04:18;2.22;;;1.80;;
62071;SDS011;48031;48.542;13.232;2023-01-10T12:08:24;2.42;;;2.20;;
62071;SDS011;48031;48.542;13.232;2023-01-10T12:12:31;2.78;;;2.20;;
62071;SDS011;48031;48.542;13.232;2023-01-10T12:16:35;2.45;;;2.00;;
62071;SDS011;48031;48.542;13.232;2023-01-10T12:20:45;3.10;;;2.50;;
62071;SDS011;48031;48.542;13.232;2023-01-10T12:24:49;3.65;;;2.53;;
62071;SDS011;48031;48.542;13.232;2023-01-10T12:28:54;6.85;;;2.92;;
62071;SDS011;48031;48.542;13.232;2023-01-10T12:33:05;6.28;;;3.30;;
62071;SDS011;48031;48.542;13.232;2023-01-10T12:46:32;6.80;;;3.40;;
62071;SDS011;48031;48.542;13.232;2023-01-10T12:51:04;7.60;;;3.28;;
62071;SDS011;48031;48.542;13.232;2023-01-10T12:55:11;5.70;;;3.40;;
62071;SDS011;48031;48.542;13.232;2023-01-10T12:59:19;9.05;;;3.80;;
62071;SDS011;48031;48.542;13.232;2023-01-10T13:03:38;6.70;;;3.50;;
62071;SDS011;48031;48.542;13.232;2023-01-10T13:07:40;5.25;;;3.67;;
62071;SDS011;48031;48.542;13.232;2023-01-10T13:20:45;5.68;;;3.47;;
62071;SDS011;48031;48.542;13.232;2023-01-10T13:24:54;5.72;;;3.72;;
62071;SDS011;48031;48.542;13.232;2023-01-10T13:28:58;4.53;;;3.08;;
62071;SDS011;48031;48.542;13.232;2023-01-10T13:33:20;7.97;;;4.20;;
62071;SDS011;48031;48.542;13.232;2023-01-10T13:37:33;10.27;;;5.60;;
62071;SDS011;48031;48.542;13.232;2023-01-10T13:54:34;5.80;;;3.30;;
62071;SDS011;48031;48.542;13.232;2023-01-10T13:58:39;7.55;;;2.88;;
62071;SDS011;48031;48.542;13.232;2023-01-10T14:03:01;6.45;;;2.60;;
62071;SDS011;48031;48.542;13.232;2023-01-10T14:07:12;6.40;;;2.53;;
62071;SDS011;48031;48.542;13.232;2023-01-10T14:11:14;6.60;;;2.58;;
62071;SDS011;48031;48.542;13.232;2023-01-10T14:23:39;4.38;;;1.98;;
62071;SDS011;48031;48.542;13.232;2023-01-10T14:27:48;5.82;;;2.30;;
62071;SDS011;48031;48.542;13.232;2023-01-10T14:31:51;4.25;;;2.10;;
62071;SDS011;48031;48.542;13.232;2023-01-10T14:35:55;5.30;;;2.75;;
62071;SDS011;48031;48.542;13.232;2023-01-10T14:40:15;4.93;;;2.30;;
62071;SDS011;48031;48.542;13.232;2023-01-10T14:44:39;5.78;;;2.22;;
62071;SDS011;48031;48.542;13.232;2023-01-10T14:48:47;4.03;;;2.42;;
62071;SDS011;48031;48.542;13.232;2023-01-10T14:52:52;5.65;;;2.55;;
62071;SDS011;48031;48.542;13.232;2023-01-10T14:56:54;3.92;;;1.83;;
62071;SDS011;48031;48.542;13.232;2023-01-10T15:00:57;6.95;;;2.97;;
62071;SDS011;48031;48.542;13.232;2023-01-10T15:05:00;7.13;;;3.00;;
62071;SDS011;48031;48.542;13.232;2023-01-10T15:09:12;6.25;;;2.80;;
62071;SDS011;48031;48.542;13.232;2023-01-10T15:13:16;8.10;;;2.63;;
62071;SDS011;48031;48.542;13.232;2023-01-10T15:17:20;6.18;;;3.05;;
62071;SDS011;48031;48.542;13.232;2023-01-10T15:21:22;7.07;;;2.75;;
62071;SDS011;48031;48.542;13.232;2023-01-10T15:25:27;7.43;;;2.75;;
62071;SDS011;48031;48.542;13.232;2023-01-10T15:29:38;8.15;;;2.90;;
62071;SDS011;48031;48.542;13.232;2023-01-10T15:33:45;9.10;;;2.83;;
62071;SDS011;48031;48.542;13.232;2023-01-10T15:41:34;4.03;;;2.45;;
62071;SDS011;48031;48.542;13.232;2023-01-10T15:45:36;6.45;;;3.10;;
62071;SDS011;48031;48.542;13.232;2023-01-10T15:49:40;5.20;;;3.10;;
62071;SDS011;48031;48.542;13.232;2023-01-10T15:58:10;4.55;;;2.35;;
62071;SDS011;48031;48.542;13.232;2023-01-10T16:06:35;6.25;;;3.10;;
62071;SDS011;48031;48.542;13.232;2023-01-10T16:10:37;3.55;;;2.50;;
62071;SDS011;48031;48.542;13.232;2023-01-10T16:14:40;5.47;;;2.10;;
62071;SDS011;48031;48.542;13.232;2023-01-10T16:18:42;3.92;;;1.70;;
62071;SDS011;48031;48.542;13.232;2023-01-10T16:22:44;4.10;;;1.70;;
62071;SDS011;48031;48.542;13.232;2023-01-10T16:26:47;4.90;;;1.83;;
62071;SDS011;48031;48.542;13.232;2023-01-10T16:30:50;2.95;;;1.80;;
62071;SDS011;48031;48.542;13.232;2023-01-10T16:34:52;6.13;;;1.90;;
62071;SDS011;48031;48.542;13.232;2023-01-10T16:38:54;4.95;;;1.95;;
62071;SDS011;48031;48.542;13.232;2023-01-10T16:42:56;5.00;;;1.98;;
62071;SDS011;48031;48.542;13.232;2023-01-10T16:47:16;2.53;;;1.80;;
62071;SDS011;48031;48.542;13.232;2023-01-10T16:51:19;3.45;;;2.10;;
62071;SDS011;48031;48.542;13.232;2023-01-10T16:55:28;3.33;;;1.90;;
62071;SDS011;48031;48.542;13.232;2023-01-10T16:59:37;5.95;;;2.42;;
62071;SDS011;48031;48.542;13.232;2023-01-10T17:03:39;5.65;;;2.90;;
62071;SDS011;48031;48.542;13.232;2023-01-10T17:07:44;6.75;;;3.33;;
62071;SDS011;48031;48.542;13.232;2023-01-10T17:11:46;9.40;;;3.78;;
62071;SDS011;48031;48.542;13.232;2023-01-10T17:15:49;6.63;;;3.17;;
62071;SDS011;48031;48.542;13.232;2023-01-10T17:19:51;3.60;;;2.50;;
62071;SDS011;48031;48.542;13.232;2023-01-10T17:23:53;9.60;;;2.80;;
62071;SDS011;48031;48.542;13.232;2023-01-10T17:27:55;5.25;;;2.30;;
62071;SDS011;48031;48.542;13.232;2023-01-10T17:31:57;3.42;;;2.05;;
62071;SDS011;48031;48.542;13.232;2023-01-10T17:35:59;6.97;;;2.10;;
62071;SDS011;48031;48.542;13.232;2023-01-10T17:40:01;4.78;;;2.30;;
62071;SDS011;48031;48.542;13.232;2023-01-10T17:44:04;3.88;;;2.42;;
62071;SDS011;48031;48.542;13.232;2023-01-10T17:48:07;5.30;;;2.40;;
62071;SDS011;48031;48.542;13.232;2023-01-10T17:52:09;2.92;;;1.85;;
62071;SDS011;48031;48.542;13.232;2023-01-10T17:56:11;5.88;;;2.97;;
62071;SDS011;48031;48.542;13.232;2023-01-10T18:00:13;5.18;;;2.63;;
62071;SDS011;48031;48.542;13.232;2023-01-10T18:04:16;2.97;;;2.17;;
62071;SDS011;48031;48.542;13.232;2023-01-10T18:08:17;3.65;;;2.35;;
62071;SDS011;48031;48.542;13.232;2023-01-10T18:12:20;2.88;;;2.10;;
62071;SDS011;48031;48.542;13.232;2023-01-10T18:16:22;5.55;;;2.58;;
62071;SDS011;48031;48.542;13.232;2023-01-10T18:20:27;3.75;;;2.45;;
62071;SDS011;48031;48.542;13.232;2023-01-10T18:24:29;2.70;;;2.13;;
62071;SDS011;48031;48.542;13.232;2023-01-10T18:28:34;3.38;;;2.05;;
62071;SDS011;48031;48.542;13.232;2023-01-10T18:32:42;3.97;;;2.00;;
62071;SDS011;48031;48.542;13.232;2023-01-10T18:36:44;2.85;;;2.28;;
62071;SDS011;48031;48.542;13.232;2023-01-10T18:40:49;2.15;;;1.92;;
62071;SDS011;48031;48.542;13.232;2023-01-10T18:44:51;4.65;;;2.10;;
62071;SDS011;48031;48.542;13.232;2023-01-10T18:48:54;4.65;;;1.98;;
62071;SDS011;48031;48.542;13.232;2023-01-10T18:52:56;2.15;;;1.80;;
62071;SDS011;48031;48.542;13.232;2023-01-10T18:56:59;3.65;;;1.83;;
62071;SDS011;48031;48.542;13.232;2023-01-10T19:01:08;2.97;;;2.08;;
62071;SDS011;48031;48.542;13.232;2023-01-10T19:05:14;3.53;;;1.70;;
62071;SDS011;48031;48.542;13.232;2023-01-10T19:09:16;2.65;;;1.90;;
62071;SDS011;48031;48.542;13.232;2023-01-10T19:13:19;2.55;;;1.80;;
62071;SDS011;48031;48.542;13.232;2023-01-10T19:17:21;4.40;;;1.80;;
62071;SDS011;48031;48.542;13.232;2023-01-10T19:21:25;2.42;;;1.90;;
62071;SDS011;48031;48.542;13.232;2023-01-10T19:25:28;3.60;;;1.85;;
62071;SDS011;48031;48.542;13.232;2023-01-10T19:29:30;5.47;;;2.05;;
62071;SDS011;48031;48.542;13.232;2023-01-10T19:33:32;4.90;;;1.90;;
62071;SDS011;48031;48.542;13.232;2023-01-10T19:37:35;4.38;;;1.83;;
62071;SDS011;48031;48.542;13.232;2023-01-10T19:41:37;3.83;;;1.92;;
62071;SDS011;48031;48.542;13.232;2023-01-10T19:45:39;5.63;;;1.83;;
62071;SDS011;48031;48.542;13.232;2023-01-10T19:49:42;3.35;;;1.90;;
62071;SDS011;48031;48.542;13.232;2023-01-10T19:53:44;3.92;;;1.80;;
62071;SDS011;48031;48.542;13.232;2023-01-10T19:57:47;2.55;;;1.60;;
62071;SDS011;48031;48.542;13.232;2023-01-10T20:01:48;3.95;;;1.70;;
62071;SDS011;48031;48.542;13.232;2023-01-10T20:05:50;1.67;;;1.48;;
62071;SDS011;48031;48.542;13.232;2023-01-10T20:09:55;3.80;;;1.80;;
62071;SDS011;48031;48.542;13.232;2023-01-10T20:13:57;2.70;;;1.38;;
62071;SDS011;48031;48.542;13.232;2023-01-10T20:17:59;2.42;;;1.50;;
62071;SDS011;48031;48.542;13.232;2023-01-10T20:22:01;1.95;;;1.50;;
62071;SDS011;48031;48.542;13.232;2023-01-10T20:26:03;3.05;;;1.50;;
62071;SDS011;48031;48.542;13.232;2023-01-10T20:30:07;1.40;;;1.30;;
62071;SDS011;48031;48.542;13.232;2023-01-10T20:34:14;1.40;;;1.30;;
62071;SDS011;48031;48.542;13.232;2023-01-10T20:38:16;2.95;;;1.67;;
62071;SDS011;48031;48.542;13.232;2023-01-10T20:42:17;1.50;;;1.40;;
62071;SDS011;48031;48.542;13.232;2023-01-10T20:46:20;2.08;;;1.40;;
62071;SDS011;48031;48.542;13.232;2023-01-10T20:50:24;2.63;;;1.50;;
62071;SDS011;48031;48.542;13.232;2023-01-10T20:54:26;1.98;;;1.85;;
62071;SDS011;48031;48.542;13.232;2023-01-10T20:58:28;3.10;;;1.52;;
62071;SDS011;48031;48.542;13.232;2023-01-10T21:02:30;1.58;;;1.45;;
62071;SDS011;48031;48.542;13.232;2023-01-10T21:06:32;1.50;;;1.40;;
62071;SDS011;48031;48.542;13.232;2023-01-10T21:10:35;2.83;;;1.70;;
62071;SDS011;48031;48.542;13.232;2023-01-10T21:14:37;3.20;;;1.60;;
62071;SDS011;48031;48.542;13.232;2023-01-10T21:18:40;4.18;;;1.50;;
62071;SDS011;48031;48.542;13.232;2023-01-10T21:22:44;1.67;;;1.50;;
62071;SDS011;48031;48.542;13.232;2023-01-10T21:26:47;1.70;;;1.50;;
62071;SDS011;48031;48.542;13.232;2023-01-10T21:30:51;1.58;;;1.35;;
62071;SDS011;48031;48.542;13.232;2023-01-10T21:34:53;2.42;;;1.50;;
62071;SDS011;48031;48.542;13.232;2023-01-10T21:38:54;1.50;;;1.40;;
62071;SDS011;48031;48.542;13.232;2023-01-10T21:42:56;1.35;;;1.20;;
62071;SDS011;48031;48.542;13.232;2023-01-10T21:47:00;3.20;;;1.77;;
62071;SDS011;48031;48.542;13.232;2023-01-10T21:51:02;3.05;;;1.70;;
62071;SDS011;48031;48.542;13.232;2023-01-10T21:55:05;1.95;;;1.77;;
62071;SDS011;48031;48.542;13.232;2023-01-10T21:59:07;2.63;;;1.70;;
62071;SDS011;48031;48.542;13.232;2023-01-10T22:03:09;2.80;;;1.73;;
62071;SDS011;48031;48.542;13.232;2023-01-10T22:07:11;4.18;;;1.90;;
62071;SDS011;48031;48.542;13.232;2023-01-10T22:11:13;2.95;;;1.70;;
62071;SDS011;48031;48.542;13.232;2023-01-10T22:15:15;4.15;;;2.05;;
62071;SDS011;48031;48.542;13.232;2023-01-10T22:19:17;2.65;;;1.70;;
62071;SDS011;48031;48.542;13.232;2023-01-10T22:23:18;1.90;;;1.63;;
62071;SDS011;48031;48.542;13.232;2023-01-10T22:27:20;2.22;;;1.80;;
62071;SDS011;48031;48.542;13.232;2023-01-10T22:31:22;2.25;;;1.50;;
62071;SDS011;48031;48.542;13.232;2023-01-10T22:35:24;2.60;;;1.50;;
62071;SDS011;48031;48.542;13.232;2023-01-10T22:39:26;1.63;;;1.52;;
62071;SDS011;48031;48.542;13.232;2023-01-10T22:43:28;1.80;;;1.50;;
62071;SDS011;48031;48.542;13.232;2023-01-10T22:47:30;2.42;;;1.75;;
62071;SDS011;48031;48.542;13.232;2023-01-10T22:51:31;3.17;;;1.80;;
62071;SDS011;48031;48.542;13.232;2023-01-10T22:55:37;3.05;;;1.70;;
62071;SDS011;48031;48.542;13.232;2023-01-10T22:59:39;4.32;;;1.58;;
62071;SDS011;48031;48.542;13.232;2023-01-10T23:03:41;4.93;;;2.50;;
62071;SDS011;48031;48.542;13.232;2023-01-10T23:07:42;5.75;;;2.75;;
62071;SDS011;48031;48.542;13.232;2023-01-10T23:11:44;3.45;;;2.72;;
62071;SDS011;48031;48.542;13.232;2023-01-10T23:15:53;2.75;;;2.13;;
62071;SDS011;48031;48.542;13.232;2023-01-10T23:19:56;5.28;;;2.97;;
62071;SDS011;48031;48.542;13.232;2023-01-10T23:23:58;4.30;;;2.53;;
62071;SDS011;48031;48.542;13.232;2023-01-10T23:28:00;3.88;;;2.47;;
62071;SDS011;48031;48.542;13.232;2023-01-10T23:32:02;2.63;;;2.17;;
62071;SDS011;48031;48.542;13.232;2023-01-10T23:36:04;5.60;;;2.95;;
62071;SDS011;48031;48.542;13.232;2023-01-10T23:40:06;6.88;;;3.72;;
62071;SDS011;48031;48.542;13.232;2023-01-10T23:44:09;5.30;;;2.90;;
62071;SDS011;48031;48.542;13.232;2023-01-10T23:48:11;5.57;;;3.30;;
62071;SDS011;48031;48.542;13.232;2023-01-10T23:52:13;3.70;;;2.50;;
62071;SDS011;48031;48.542;13.232;2023-01-10T23:56:15;3.75;;;2.60;;
